Terminal Aerodrome Forecast
Issued by NWS Louisville, KY

Home | Current Version | Previous Version | Text Only | Print | Product List | Glossary On
Versions: 1 2 3 4 5 6 7 8 9 10 11 12 13 14
000
FTUS43 KLMK 152300
TAFSDF
TAF
KSDF 152325Z 1600/1706 33009KT P6SM SCT060
     FM160200 VRB04KT P6SM SKC
     FM161400 12008KT P6SM SCT250=

USA.gov is the U.S. government's official web portal to all federal, state and local government web resources and services.